createdAt,value
2017-08-05T00:00:11.164Z,2.92
2017-08-05T00:02:39.442Z,2.87
2017-08-05T00:05:08.512Z,2.40
2017-08-05T00:07:37.553Z,2.10
2017-08-05T00:10:05.820Z,2.37
2017-08-05T00:12:34.119Z,2.72
2017-08-05T00:15:03.147Z,2.70
2017-08-05T00:17:31.416Z,2.12
2017-08-05T00:20:00.596Z,2.33
2017-08-05T00:22:29.308Z,2.05
2017-08-05T00:24:58.338Z,2.58
2017-08-05T00:27:26.631Z,2.50
2017-08-05T00:29:54.900Z,2.42
2017-08-05T00:32:23.165Z,2.10
2017-08-05T00:34:51.476Z,2.50
2017-08-05T00:37:19.740Z,2.47
2017-08-05T00:39:48.004Z,2.83
2017-08-05T00:42:16.316Z,2.12
2017-08-05T00:44:44.584Z,2.53
2017-08-05T00:47:13.620Z,2.55
2017-08-05T00:49:41.908Z,2.75
2017-08-05T00:52:10.167Z,2.22
2017-08-05T00:54:38.428Z,2.37
2017-08-05T00:57:06.720Z,2.33
2017-08-05T00:59:34.986Z,2.40
2017-08-05T01:02:03.261Z,3.17
2017-08-05T01:04:31.572Z,2.47
2017-08-05T01:06:59.833Z,2.55
2017-08-05T01:09:28.096Z,2.20
2017-08-05T01:11:56.404Z,2.78
2017-08-05T01:14:24.684Z,2.00
2017-08-05T01:16:52.939Z,2.17
2017-08-05T01:19:21.251Z,1.85
2017-08-05T01:21:50.288Z,2.58
2017-08-05T01:24:18.548Z,3.00
2017-08-05T01:26:46.871Z,2.28
2017-08-05T01:29:15.908Z,2.78
2017-08-05T01:31:44.163Z,2.60
2017-08-05T01:34:12.463Z,2.55
2017-08-05T01:36:41.505Z,2.40
2017-08-05T01:39:09.756Z,2.45
2017-08-05T01:41:38.060Z,2.42
2017-08-05T01:44:07.087Z,2.40
2017-08-05T01:46:35.348Z,2.20
2017-08-05T01:49:03.650Z,2.67
2017-08-05T01:51:31.925Z,2.53
2017-08-05T01:54:00.955Z,2.08
2017-08-05T01:56:29.264Z,2.60
2017-08-05T01:58:58.311Z,3.42
2017-08-05T02:01:26.580Z,3.12
2017-08-05T02:03:54.894Z,2.40
2017-08-05T02:06:23.167Z,2.70
2017-08-05T02:08:51.580Z,2.92
2017-08-05T02:11:19.887Z,2.53
2017-08-05T02:13:48.152Z,3.42
2017-08-05T02:16:16.427Z,3.30
2017-08-05T02:18:44.728Z,2.20
2017-08-05T02:21:12.996Z,2.28
2017-08-05T02:23:42.036Z,2.20
2017-08-05T02:26:10.328Z,2.50
2017-08-05T02:28:38.589Z,2.47
2017-08-05T02:31:06.855Z,2.35
2017-08-05T02:33:35.167Z,2.40
2017-08-05T02:36:03.441Z,2.78
2017-08-05T02:38:31.711Z,3.00
2017-08-05T02:41:00.019Z,2.87
2017-08-05T02:43:29.059Z,2.90
2017-08-05T02:45:57.311Z,2.97
2017-08-05T02:48:25.615Z,3.33
2017-08-05T02:50:54.707Z,2.75
2017-08-05T02:53:23.740Z,3.47
2017-08-05T02:55:52.048Z,3.15
2017-08-05T02:58:20.317Z,2.90
2017-08-05T03:00:48.584Z,3.08
2017-08-05T03:03:17.008Z,3.05
2017-08-05T03:05:45.275Z,3.00
2017-08-05T03:08:13.540Z,2.80
2017-08-05T03:10:42.615Z,2.70
2017-08-05T03:13:11.648Z,2.87
2017-08-05T03:15:39.907Z,2.67
2017-08-05T03:18:08.212Z,2.80
2017-08-05T03:20:36.475Z,2.40
2017-08-05T03:23:05.503Z,3.22
2017-08-05T03:25:33.816Z,4.25
2017-08-05T03:28:02.076Z,2.85
2017-08-05T03:30:30.341Z,2.80
2017-08-05T03:32:59.420Z,2.90
2017-08-05T03:35:28.459Z,2.85
2017-08-05T03:37:56.715Z,3.30
2017-08-05T03:40:25.019Z,2.92
2017-08-05T03:42:53.296Z,2.97
2017-08-05T03:45:22.320Z,3.20
2017-08-05T03:47:50.623Z,3.30
2017-08-05T03:50:19.652Z,2.85
2017-08-05T03:52:47.914Z,3.10
2017-08-05T03:55:16.211Z,2.80
2017-08-05T03:57:44.475Z,2.35
2017-08-05T04:00:12.740Z,2.60
2017-08-05T04:02:41.042Z,3.00
2017-08-05T04:05:09.320Z,2.85
2017-08-05T04:07:37.593Z,2.72
2017-08-05T04:10:05.901Z,2.65
2017-08-05T04:12:34.931Z,3.08
2017-08-05T04:15:03.195Z,3.30
2017-08-05T04:17:31.593Z,2.37
2017-08-05T04:20:00.628Z,2.97
2017-08-05T04:22:29.243Z,3.33
2017-08-05T04:24:57.712Z,2.70
2017-08-05T04:27:25.988Z,3.08
2017-08-05T04:29:54.632Z,2.50
2017-08-05T04:32:23.825Z,2.80
2017-08-05T04:34:52.091Z,2.85
2017-08-05T04:37:21.111Z,2.50
2017-08-05T04:39:49.440Z,2.83
2017-08-05T04:42:18.476Z,2.72
2017-08-05T04:44:46.734Z,2.80
2017-08-05T04:47:15.136Z,3.00
2017-08-05T04:49:44.160Z,3.05
2017-08-05T04:52:12.432Z,3.17
2017-08-05T04:54:40.996Z,3.15
2017-08-05T04:57:09.280Z,3.87
2017-08-05T04:59:37.541Z,2.83
2017-08-05T05:02:05.864Z,2.92
2017-08-05T05:04:34.133Z,2.83
2017-08-05T05:07:02.391Z,3.65
2017-08-05T05:09:30.721Z,2.72
2017-08-05T05:11:59.751Z,2.80
2017-08-05T05:14:28.003Z,2.80
2017-08-05T05:16:56.573Z,2.97
2017-08-05T05:19:25.659Z,2.95
2017-08-05T05:21:53.916Z,2.72
2017-08-05T05:24:22.321Z,3.10
2017-08-05T05:26:51.353Z,3.03
2017-08-05T05:29:19.612Z,2.97
2017-08-05T05:31:47.907Z,2.65
2017-08-05T05:34:16.172Z,2.62
2017-08-05T05:36:44.436Z,2.87
2017-08-05T05:39:13.624Z,3.30
2017-08-05T05:41:42.658Z,3.50
2017-08-05T05:44:10.920Z,3.20
2017-08-05T05:46:39.208Z,2.50
2017-08-05T05:49:07.464Z,3.10
2017-08-05T05:51:35.736Z,2.50
2017-08-05T05:54:04.043Z,3.22
2017-08-05T05:56:32.308Z,2.30
2017-08-05T05:59:00.575Z,2.40
2017-08-05T06:01:28.987Z,2.50
2017-08-05T06:03:57.403Z,2.80
2017-08-05T06:06:25.677Z,2.50
2017-08-05T06:08:53.976Z,3.22
2017-08-05T06:11:23.032Z,2.33
2017-08-05T06:13:51.299Z,2.20
2017-08-05T06:16:19.599Z,3.42
2017-08-05T06:18:48.636Z,3.58
2017-08-05T06:21:16.895Z,2.47
2017-08-05T06:23:45.195Z,2.37
2017-08-05T06:26:14.236Z,3.53
2017-08-05T06:28:42.495Z,2.30
2017-08-05T06:31:10.811Z,2.95
2017-08-05T06:33:39.071Z,2.72
2017-08-05T06:36:07.339Z,2.40
2017-08-05T06:38:35.646Z,2.80
2017-08-05T06:41:04.762Z,2.92
2017-08-05T06:43:33.011Z,2.35
2017-08-05T06:46:01.323Z,2.72
2017-08-05T06:48:29.600Z,3.00
2017-08-05T06:50:57.872Z,2.22
2017-08-05T06:53:26.280Z,2.67
2017-08-05T06:55:54.544Z,3.10
2017-08-05T06:58:23.584Z,3.17
2017-08-05T07:00:51.899Z,2.62
2017-08-05T07:03:20.159Z,1.90
2017-08-05T07:05:48.576Z,2.75
2017-08-05T07:08:16.887Z,2.40
2017-08-05T07:10:45.160Z,2.35
2017-08-05T07:13:13.448Z,2.35
2017-08-05T07:15:41.747Z,2.58
2017-08-05T07:18:10.780Z,2.15
2017-08-05T07:20:39.052Z,2.37
2017-08-05T07:23:07.347Z,2.60
2017-08-05T07:25:36.383Z,3.30
2017-08-05T07:28:04.644Z,2.35
2017-08-05T07:33:07.493Z,2.25
2017-08-05T07:35:35.813Z,1.92
2017-08-05T07:38:04.850Z,2.12
2017-08-05T07:40:33.121Z,2.72
2017-08-05T07:43:01.427Z,2.72
2017-08-05T07:45:29.699Z,2.62
2017-08-05T07:47:57.963Z,2.40
2017-08-05T07:50:26.281Z,2.35
2017-08-05T07:52:54.605Z,2.92
2017-08-05T07:55:22.908Z,2.67
2017-08-05T07:57:51.216Z,2.28
2017-08-05T08:00:19.484Z,2.60
2017-08-05T08:02:47.756Z,1.70
2017-08-05T08:05:16.063Z,1.90
2017-08-05T08:07:45.092Z,1.98
2017-08-05T08:10:13.366Z,2.20
2017-08-05T08:12:41.700Z,2.37
2017-08-05T08:15:09.985Z,1.80
2017-08-05T08:17:38.259Z,2.30
2017-08-05T08:20:06.560Z,1.98
2017-08-05T08:22:35.591Z,1.70
2017-08-05T08:25:03.860Z,2.60
2017-08-05T08:27:32.167Z,1.87
2017-08-05T08:30:00.448Z,1.67
2017-08-05T08:32:28.727Z,2.75
2017-08-05T08:34:57.032Z,1.60
2017-08-05T08:37:25.353Z,2.00
2017-08-05T08:39:53.625Z,2.85
2017-08-05T08:42:21.933Z,2.20
2017-08-05T08:44:50.963Z,2.00
2017-08-05T08:47:19.240Z,2.00
2017-08-05T08:49:47.548Z,2.08
2017-08-05T08:52:15.819Z,1.77
2017-08-05T08:54:44.096Z,1.70
2017-08-05T08:57:12.408Z,2.15
2017-08-05T08:59:41.439Z,2.00
2017-08-05T09:02:09.720Z,2.20
2017-08-05T09:04:38.023Z,1.95
2017-08-05T09:07:06.300Z,1.92
2017-08-05T09:09:34.576Z,2.10
2017-08-05T09:12:03.223Z,2.03
2017-08-05T09:14:32.266Z,2.00
2017-08-05T09:17:00.544Z,1.95
2017-08-05T09:19:28.856Z,1.92
2017-08-05T09:21:57.131Z,2.08
2017-08-05T09:24:25.404Z,1.58
2017-08-05T09:26:55.128Z,2.30
2017-08-05T09:29:24.249Z,2.62
2017-08-05T09:31:52.520Z,2.50
2017-08-05T09:34:20.936Z,2.65
2017-08-05T09:36:49.981Z,2.70
2017-08-05T09:39:18.272Z,1.90
2017-08-05T09:41:47.338Z,2.12
2017-08-05T09:44:15.622Z,2.50
2017-08-05T09:46:44.657Z,1.50
2017-08-05T09:49:12.965Z,2.17
2017-08-05T09:51:42.001Z,1.67
2017-08-05T09:54:10.272Z,2.10
2017-08-05T09:56:38.589Z,2.00
2017-08-05T09:59:06.851Z,2.87
2017-08-05T10:01:35.133Z,1.67
2017-08-05T10:04:03.441Z,1.60
2017-08-05T10:06:32.584Z,1.63
2017-08-05T10:09:00.856Z,1.70
2017-08-05T10:11:29.163Z,1.90
2017-08-05T10:13:57.436Z,1.80
2017-08-05T10:16:25.735Z,1.65
2017-08-05T10:18:54.064Z,1.80
2017-08-05T10:21:22.328Z,1.60
2017-08-05T10:23:50.600Z,1.87
2017-08-05T10:26:18.908Z,1.77
2017-08-05T10:28:47.171Z,1.63
2017-08-05T10:31:16.207Z,1.80
2017-08-05T10:33:44.615Z,2.10
2017-08-05T10:36:12.884Z,1.73
2017-08-05T10:38:41.911Z,1.73
2017-08-05T10:41:10.204Z,2.00
2017-08-05T10:43:38.468Z,1.20
2017-08-05T10:46:06.749Z,1.30
2017-08-05T10:48:35.779Z,1.67
2017-08-05T10:51:04.855Z,1.40
2017-08-05T10:53:33.128Z,1.67
2017-08-05T10:56:01.416Z,2.13
2017-08-05T10:58:29.687Z,1.73
2017-08-05T11:00:58.731Z,1.40
2017-08-05T11:03:27.003Z,1.37
2017-08-05T11:05:55.288Z,1.30
2017-08-05T11:08:24.560Z,1.27
2017-08-05T11:10:53.139Z,1.27
2017-08-05T11:13:21.404Z,1.70
2017-08-05T11:15:50.440Z,1.50
2017-08-05T11:18:18.719Z,1.47
2017-08-05T11:20:46.993Z,1.70
2017-08-05T11:23:15.284Z,1.57
2017-08-05T11:25:43.551Z,1.50
2017-08-05T11:28:11.828Z,1.47
2017-08-05T11:30:40.112Z,1.60
2017-08-05T11:33:08.491Z,1.47
2017-08-05T11:35:36.855Z,1.60
2017-08-05T11:38:05.120Z,1.80
2017-08-05T11:40:33.405Z,1.60
2017-08-05T11:43:02.436Z,1.57
2017-08-05T11:45:30.741Z,1.37
2017-08-05T11:47:59.776Z,1.90
2017-08-05T11:50:28.040Z,1.90
2017-08-05T11:52:56.319Z,1.37
2017-08-05T11:55:24.599Z,1.60
2017-08-05T11:57:52.936Z,1.50
2017-08-05T12:00:21.206Z,1.87
2017-08-05T12:02:49.467Z,2.20
2017-08-05T12:05:17.752Z,1.37
2017-08-05T12:07:46.791Z,1.90
2017-08-05T12:10:15.075Z,1.10
2017-08-05T12:12:43.344Z,1.77
2017-08-05T12:15:11.672Z,1.77
2017-08-05T12:17:39.943Z,1.70
2017-08-05T12:20:08.203Z,1.40
2017-08-05T12:22:37.384Z,2.33
2017-08-05T12:25:05.655Z,1.60
2017-08-05T12:27:33.969Z,1.67
2017-08-05T12:30:02.237Z,1.87
2017-08-05T12:32:30.512Z,1.40
2017-08-05T12:34:58.788Z,1.43
2017-08-05T12:37:27.047Z,1.70
2017-08-05T12:39:55.444Z,1.90
2017-08-05T12:42:23.721Z,1.60
2017-08-05T12:44:52.756Z,1.40
2017-08-05T12:47:21.036Z,1.40
2017-08-05T12:49:49.299Z,1.50
2017-08-05T12:52:17.607Z,0.90
2017-08-05T12:54:45.881Z,2.93
2017-08-05T12:57:14.143Z,1.57
2017-08-05T12:59:42.432Z,1.67
2017-08-05T13:02:10.935Z,1.30
2017-08-05T13:04:39.223Z,0.93
2017-08-05T13:07:07.495Z,1.40
2017-08-05T13:09:35.776Z,1.53
2017-08-05T13:12:04.035Z,1.30
2017-08-05T13:14:32.340Z,1.20
2017-08-05T13:17:01.372Z,1.37
2017-08-05T13:19:29.652Z,1.23
2017-08-05T13:21:57.924Z,1.00
2017-08-05T13:24:26.971Z,1.20
2017-08-05T13:26:55.349Z,1.20
2017-08-05T13:29:23.641Z,1.70
2017-08-05T13:31:52.671Z,1.10
2017-08-05T13:34:20.991Z,1.80
2017-08-05T13:36:49.260Z,1.30
2017-08-05T13:39:17.524Z,1.40
2017-08-05T13:41:45.814Z,1.07
2017-08-05T13:44:14.075Z,1.50
2017-08-05T13:46:42.364Z,1.10
2017-08-05T13:49:10.631Z,1.37
2017-08-05T13:51:39.683Z,1.00
2017-08-05T13:54:07.964Z,1.20
2017-08-05T13:56:36.265Z,1.30
2017-08-05T13:59:04.527Z,0.93
2017-08-05T14:01:32.832Z,1.57
2017-08-05T14:04:01.099Z,1.20
2017-08-05T14:06:29.403Z,1.33
2017-08-05T14:08:57.676Z,1.10
2017-08-05T14:11:25.943Z,1.30
2017-08-05T14:13:54.272Z,1.40
2017-08-05T14:16:24.296Z,1.70
2017-08-05T14:18:52.576Z,1.13
2017-08-05T14:21:20.995Z,1.10
2017-08-05T14:23:49.269Z,1.70
2017-08-05T14:26:18.300Z,1.30
2017-08-05T14:28:46.620Z,1.10
2017-08-05T14:31:15.988Z,1.47
2017-08-05T14:33:45.028Z,7.80
2017-08-05T14:36:13.336Z,3.37
2017-08-05T14:38:42.377Z,1.48
2017-08-05T14:41:10.657Z,1.20
2017-08-05T14:43:38.976Z,1.20
2017-08-05T14:46:07.252Z,1.10
2017-08-05T14:48:35.561Z,1.40
2017-08-05T14:51:04.651Z,2.83
2017-08-05T14:53:32.936Z,3.55
2017-08-05T14:56:01.241Z,2.03
2017-08-05T14:58:29.598Z,1.52
2017-08-05T15:00:57.864Z,1.73
2017-08-05T15:03:26.154Z,5.10
2017-08-05T15:05:55.251Z,2.45
2017-08-05T15:08:23.555Z,1.10
2017-08-05T15:10:51.820Z,3.00
2017-08-05T15:13:20.119Z,1.83
2017-08-05T15:15:48.387Z,1.10
2017-08-05T15:18:16.783Z,1.62
2017-08-05T15:20:45.093Z,3.45
2017-08-05T15:23:14.128Z,2.17
2017-08-05T15:25:42.527Z,6.57
2017-08-05T15:28:11.620Z,6.68
2017-08-05T15:30:40.661Z,4.05
2017-08-05T15:33:08.966Z,5.00
2017-08-05T15:35:38.040Z,4.32
2017-08-05T15:38:07.104Z,1.50
2017-08-05T15:40:35.399Z,1.98
2017-08-05T15:43:03.692Z,1.80
2017-08-05T15:45:31.967Z,1.70
2017-08-05T15:48:00.237Z,1.75
2017-08-05T15:50:28.552Z,1.50
2017-08-05T15:52:56.827Z,1.33
2017-08-05T15:55:25.104Z,1.20
2017-08-05T15:57:53.408Z,1.17
2017-08-05T16:00:22.466Z,1.17
2017-08-05T16:02:50.721Z,1.75
2017-08-05T16:05:19.112Z,1.25
2017-08-05T16:07:48.144Z,1.15
2017-08-05T16:10:16.415Z,1.17
2017-08-05T16:12:44.736Z,1.50
2017-08-05T16:15:13.751Z,1.08
2017-08-05T16:17:42.028Z,1.20
2017-08-05T16:20:10.487Z,1.15
2017-08-05T16:22:38.765Z,1.35
2017-08-05T16:25:07.019Z,1.00
2017-08-05T16:27:35.332Z,1.23
2017-08-05T16:30:03.613Z,1.40
2017-08-05T16:32:31.875Z,1.00
2017-08-05T16:35:00.193Z,1.00
2017-08-05T16:37:29.234Z,0.88
2017-08-05T16:39:57.500Z,0.98
2017-08-05T16:42:26.001Z,1.10
2017-08-05T16:44:55.028Z,0.90
2017-08-05T16:47:23.306Z,1.27
2017-08-05T16:49:51.615Z,1.12
2017-08-05T16:52:19.888Z,1.00
2017-08-05T16:54:48.155Z,0.88
2017-08-05T16:57:16.469Z,1.10
2017-08-05T16:59:44.736Z,1.20
2017-08-05T17:02:12.999Z,1.12
2017-08-05T17:04:42.068Z,0.90
2017-08-05T17:07:10.352Z,0.90
2017-08-05T17:09:39.378Z,1.10
2017-08-05T17:12:08.076Z,1.10
2017-08-05T17:14:36.338Z,2.37
2017-08-05T17:17:04.612Z,1.00
2017-08-05T17:22:08.253Z,1.02
2017-08-05T17:24:36.574Z,1.10
2017-08-05T17:27:05.608Z,1.15
2017-08-05T17:29:33.876Z,1.50
2017-08-05T17:32:02.184Z,1.40
2017-08-05T17:34:30.459Z,1.50
2017-08-05T17:36:58.733Z,3.35
2017-08-05T17:39:27.032Z,1.70
2017-08-05T17:41:55.295Z,1.52
2017-08-05T17:44:23.559Z,1.65
2017-08-05T17:46:51.872Z,1.95
2017-08-05T17:49:20.196Z,2.05
2017-08-05T17:51:49.232Z,2.20
2017-08-05T17:54:17.639Z,1.83
2017-08-05T17:56:46.671Z,2.00
2017-08-05T17:59:14.940Z,1.90
2017-08-05T18:01:43.355Z,2.08
2017-08-05T18:04:11.613Z,2.50
2017-08-05T18:06:40.651Z,2.45
2017-08-05T18:09:08.950Z,2.60
2017-08-05T18:11:37.981Z,3.30
2017-08-05T18:14:06.248Z,2.70
2017-08-05T18:16:34.556Z,2.70
2017-08-05T18:19:03.592Z,2.55
2017-08-05T18:21:34.107Z,1.95
2017-08-05T18:24:02.391Z,2.78
2017-08-05T18:26:30.664Z,2.85
2017-08-05T18:28:58.974Z,2.97
2017-08-05T18:31:27.261Z,2.78
2017-08-05T18:33:55.540Z,2.53
2017-08-05T18:36:23.839Z,2.60
2017-08-05T18:38:52.099Z,2.33
2017-08-05T18:41:20.379Z,2.55
2017-08-05T18:43:48.691Z,2.47
2017-08-05T18:46:18.957Z,2.60
2017-08-05T18:48:48.491Z,2.22
2017-08-05T18:51:17.540Z,2.75
2017-08-05T18:53:46.607Z,2.42
2017-08-05T18:56:14.921Z,2.03
2017-08-05T18:58:43.952Z,2.30
2017-08-05T19:01:12.220Z,2.10
2017-08-05T19:03:40.533Z,2.65
2017-08-05T19:06:08.799Z,2.12
2017-08-05T19:08:37.199Z,2.60
2017-08-05T19:11:05.487Z,2.15
2017-08-05T19:13:33.755Z,2.33
2017-08-05T19:16:02.024Z,2.50
2017-08-05T19:18:31.108Z,2.80
2017-08-05T19:21:00.153Z,3.45
2017-08-05T19:23:28.416Z,2.37
2017-08-05T19:25:56.752Z,2.70
2017-08-05T19:28:25.024Z,2.72
2017-08-05T19:30:53.288Z,2.30
2017-08-05T19:33:21.591Z,2.55
2017-08-05T19:35:49.868Z,2.67
2017-08-05T19:38:20.848Z,3.25
2017-08-05T19:40:49.132Z,2.70
2017-08-05T19:43:17.452Z,3.75
2017-08-05T19:45:45.755Z,2.40
2017-08-05T19:48:14.022Z,3.30
2017-08-05T19:50:42.291Z,3.40
2017-08-05T19:53:11.343Z,3.25
2017-08-05T19:55:39.607Z,3.30
2017-08-05T19:58:07.872Z,3.72
2017-08-05T20:00:37.279Z,3.35
2017-08-05T20:03:06.303Z,3.53
2017-08-05T20:05:34.568Z,3.30
2017-08-05T20:08:02.884Z,3.30
2017-08-05T20:10:31.911Z,3.22
2017-08-05T20:13:00.180Z,3.20
2017-08-05T20:15:28.488Z,2.95
2017-08-05T20:17:57.532Z,3.53
2017-08-05T20:20:25.802Z,3.20
2017-08-05T20:22:54.120Z,2.87
2017-08-05T20:25:22.376Z,3.00
2017-08-05T20:27:50.651Z,3.37
2017-08-05T20:30:18.932Z,3.47
2017-08-05T20:32:47.216Z,3.15
2017-08-05T20:35:15.476Z,2.62
2017-08-05T20:37:43.764Z,2.75
2017-08-05T20:40:12.796Z,3.10
2017-08-05T20:42:41.068Z,3.03
2017-08-05T20:45:09.348Z,3.12
2017-08-05T20:47:38.376Z,2.72
2017-08-05T20:50:06.664Z,3.08
2017-08-05T20:52:34.924Z,2.78
2017-08-05T20:55:03.220Z,2.65
2017-08-05T20:57:32.246Z,2.60
2017-08-05T21:00:00.511Z,2.50
2017-08-05T21:02:28.795Z,2.40
2017-08-05T21:04:57.059Z,2.87
2017-08-05T21:07:25.340Z,2.70
2017-08-05T21:09:53.619Z,1.70
2017-08-05T21:12:21.904Z,2.17
2017-08-05T21:14:50.179Z,1.60
2017-08-05T21:17:18.467Z,1.40
2017-08-05T21:19:46.733Z,1.70
2017-08-05T21:22:15.036Z,1.20
2017-08-05T21:24:43.300Z,1.48
2017-08-05T21:27:11.568Z,1.42
2017-08-05T21:29:39.851Z,1.65
2017-08-05T21:32:08.117Z,1.60
2017-08-05T21:34:36.423Z,1.92
2017-08-05T21:37:05.452Z,1.90
2017-08-05T21:39:33.712Z,1.90
2017-08-05T21:42:01.992Z,1.70
2017-08-05T21:44:30.564Z,1.48
2017-08-05T21:46:58.848Z,1.50
2017-08-05T21:49:27.880Z,2.10
2017-08-05T21:51:56.159Z,1.42
2017-08-05T21:54:24.421Z,1.40
2017-08-05T21:56:52.744Z,2.42
2017-08-05T21:59:21.048Z,2.10
2017-08-05T22:01:49.313Z,2.78
2017-08-05T22:04:17.596Z,1.90
2017-08-05T22:06:46.628Z,1.70
2017-08-05T22:09:15.060Z,1.90
2017-08-05T22:11:43.328Z,2.05
2017-08-05T22:14:11.604Z,2.03
2017-08-05T22:16:39.880Z,2.53
2017-08-05T22:19:08.149Z,2.12
2017-08-05T22:21:36.443Z,1.80
2017-08-05T22:24:05.481Z,2.05
2017-08-05T22:26:33.747Z,2.22
2017-08-05T22:29:02.039Z,1.80
2017-08-05T22:31:31.068Z,1.92
2017-08-05T22:33:59.420Z,1.50
2017-08-05T22:36:27.671Z,1.80
2017-08-05T22:38:55.939Z,1.50
2017-08-05T22:41:24.216Z,1.75
2017-08-05T22:43:52.480Z,1.70
2017-08-05T22:46:20.775Z,1.70
2017-08-05T22:48:49.065Z,1.70
2017-08-05T22:51:18.111Z,1.85
2017-08-05T22:53:46.392Z,2.00
2017-08-05T22:56:15.428Z,2.00
2017-08-05T22:58:43.722Z,1.92
2017-08-05T23:01:11.994Z,2.00
2017-08-05T23:03:41.025Z,2.28
2017-08-05T23:06:09.303Z,1.95
2017-08-05T23:08:37.575Z,2.87
2017-08-05T23:11:06.047Z,1.90
2017-08-05T23:13:34.320Z,2.00
2017-08-05T23:16:03.343Z,2.50
2017-08-05T23:18:31.627Z,2.30
2017-08-05T23:20:59.899Z,2.25
2017-08-05T23:23:28.196Z,2.22
2017-08-05T23:25:56.459Z,2.50
2017-08-05T23:28:24.736Z,2.47
2017-08-05T23:30:53.015Z,2.45
2017-08-05T23:33:21.284Z,3.03
2017-08-05T23:35:49.592Z,2.00
2017-08-05T23:38:18.620Z,2.15
2017-08-05T23:40:46.884Z,2.70
2017-08-05T23:43:15.168Z,2.70
2017-08-05T23:45:43.431Z,2.42
2017-08-05T23:48:12.708Z,2.67
2017-08-05T23:50:40.972Z,2.40
2017-08-05T23:53:09.252Z,2.90
2017-08-05T23:55:38.284Z,3.20
2017-08-05T23:58:06.572Z,3.03
